sensor_id;sensor_type;location;lat;lon;timestamp;temperature;humidity
40059;SHT31;25763;49.972;8.568;2023-07-22T00:00:47;15.90;78.36
40059;SHT31;25763;49.972;8.568;2023-07-22T00:03:13;15.86;78.74
40059;SHT31;25763;49.972;8.568;2023-07-22T00:05:39;15.88;78.55
40059;SHT31;25763;49.972;8.568;2023-07-22T00:08:04;15.88;78.54
40059;SHT31;25763;49.972;8.568;2023-07-22T00:10:29;15.83;78.63
40059;SHT31;25763;49.972;8.568;2023-07-22T00:12:55;15.70;78.81
40059;SHT31;25763;49.972;8.568;2023-07-22T00:15:20;15.67;79.14
40059;SHT31;25763;49.972;8.568;2023-07-22T00:17:47;15.65;79.05
40059;SHT31;25763;49.972;8.568;2023-07-22T00:20:12;15.59;79.36
40059;SHT31;25763;49.972;8.568;2023-07-22T00:22:39;15.69;79.07
40059;SHT31;25763;49.972;8.568;2023-07-22T00:25:08;15.87;78.87
40059;SHT31;25763;49.972;8.568;2023-07-22T00:27:36;15.98;78.24
40059;SHT31;25763;49.972;8.568;2023-07-22T00:30:01;16.08;77.87
40059;SHT31;25763;49.972;8.568;2023-07-22T00:32:26;16.17;77.52
40059;SHT31;25763;49.972;8.568;2023-07-22T00:34:52;16.17;77.59
40059;SHT31;25763;49.972;8.568;2023-07-22T00:37:17;16.18;77.52
40059;SHT31;25763;49.972;8.568;2023-07-22T00:39:42;16.22;77.38
40059;SHT31;25763;49.972;8.568;2023-07-22T00:42:07;16.25;77.18
40059;SHT31;25763;49.972;8.568;2023-07-22T00:44:33;16.24;77.10
40059;SHT31;25763;49.972;8.568;2023-07-22T00:46:58;16.22;77.00
40059;SHT31;25763;49.972;8.568;2023-07-22T00:49:24;16.18;76.83
40059;SHT31;25763;49.972;8.568;2023-07-22T00:51:50;16.18;76.58
40059;SHT31;25763;49.972;8.568;2023-07-22T00:54:16;16.12;76.92
40059;SHT31;25763;49.972;8.568;2023-07-22T00:56:41;15.86;77.50
40059;SHT31;25763;49.972;8.568;2023-07-22T00:59:06;15.69;77.98
40059;SHT31;25763;49.972;8.568;2023-07-22T01:01:32;15.49;78.67
40059;SHT31;25763;49.972;8.568;2023-07-22T01:03:57;15.37;79.10
40059;SHT31;25763;49.972;8.568;2023-07-22T01:06:23;15.28;79.26
40059;SHT31;25763;49.972;8.568;2023-07-22T01:08:49;15.15;79.69
40059;SHT31;25763;49.972;8.568;2023-07-22T01:11:14;15.07;79.78
40059;SHT31;25763;49.972;8.568;2023-07-22T01:13:40;15.03;80.01
40059;SHT31;25763;49.972;8.568;2023-07-22T01:16:06;14.87;80.35
40059;SHT31;25763;49.972;8.568;2023-07-22T01:18:32;14.75;81.19
40059;SHT31;25763;49.972;8.568;2023-07-22T01:20:57;14.69;81.55
40059;SHT31;25763;49.972;8.568;2023-07-22T01:23:23;14.69;81.55
40059;SHT31;25763;49.972;8.568;2023-07-22T01:25:48;14.75;81.32
40059;SHT31;25763;49.972;8.568;2023-07-22T01:28:14;14.79;81.23
40059;SHT31;25763;49.972;8.568;2023-07-22T01:30:39;14.86;81.12
40059;SHT31;25763;49.972;8.568;2023-07-22T01:33:05;14.92;81.04
40059;SHT31;25763;49.972;8.568;2023-07-22T01:35:30;14.93;80.89
40059;SHT31;25763;49.972;8.568;2023-07-22T01:37:55;14.96;80.73
40059;SHT31;25763;49.972;8.568;2023-07-22T01:40:20;14.76;81.22
40059;SHT31;25763;49.972;8.568;2023-07-22T01:42:48;14.50;81.63
40059;SHT31;25763;49.972;8.568;2023-07-22T01:45:13;14.41;81.75
40059;SHT31;25763;49.972;8.568;2023-07-22T01:47:39;14.30;82.14
40059;SHT31;25763;49.972;8.568;2023-07-22T01:50:05;14.30;82.31
40059;SHT31;25763;49.972;8.568;2023-07-22T01:52:35;14.21;82.64
40059;SHT31;25763;49.972;8.568;2023-07-22T01:55:00;14.16;82.63
40059;SHT31;25763;49.972;8.568;2023-07-22T01:57:26;14.05;83.11
40059;SHT31;25763;49.972;8.568;2023-07-22T01:59:51;13.88;83.20
40059;SHT31;25763;49.972;8.568;2023-07-22T02:02:16;13.65;83.99
40059;SHT31;25763;49.972;8.568;2023-07-22T02:04:42;13.73;84.08
40059;SHT31;25763;49.972;8.568;2023-07-22T02:07:07;13.68;83.93
40059;SHT31;25763;49.972;8.568;2023-07-22T02:09:32;13.70;83.75
40059;SHT31;25763;49.972;8.568;2023-07-22T02:12:01;13.61;83.99
40059;SHT31;25763;49.972;8.568;2023-07-22T02:14:26;13.61;84.26
40059;SHT31;25763;49.972;8.568;2023-07-22T02:16:51;13.48;84.39
40059;SHT31;25763;49.972;8.568;2023-07-22T02:19:16;13.44;84.51
40059;SHT31;25763;49.972;8.568;2023-07-22T02:21:42;13.46;84.41
40059;SHT31;25763;49.972;8.568;2023-07-22T02:24:08;13.44;84.51
40059;SHT31;25763;49.972;8.568;2023-07-22T02:26:33;13.43;84.51
40059;SHT31;25763;49.972;8.568;2023-07-22T02:28:58;13.33;84.86
40059;SHT31;25763;49.972;8.568;2023-07-22T02:31:24;13.57;84.54
40059;SHT31;25763;49.972;8.568;2023-07-22T02:33:50;13.73;84.03
40059;SHT31;25763;49.972;8.568;2023-07-22T02:36:15;13.86;83.58
40059;SHT31;25763;49.972;8.568;2023-07-22T02:38:41;13.98;83.05
40059;SHT31;25763;49.972;8.568;2023-07-22T02:41:06;14.05;82.52
40059;SHT31;25763;49.972;8.568;2023-07-22T02:43:33;14.08;82.20
40059;SHT31;25763;49.972;8.568;2023-07-22T02:46:02;14.13;81.86
40059;SHT31;25763;49.972;8.568;2023-07-22T02:48:28;14.17;81.59
40059;SHT31;25763;49.972;8.568;2023-07-22T02:50:53;14.21;81.37
40059;SHT31;25763;49.972;8.568;2023-07-22T02:53:19;14.21;81.23
40059;SHT31;25763;49.972;8.568;2023-07-22T02:55:44;14.23;81.04
40059;SHT31;25763;49.972;8.568;2023-07-22T02:58:11;14.24;81.03
40059;SHT31;25763;49.972;8.568;2023-07-22T03:00:36;14.26;80.94
40059;SHT31;25763;49.972;8.568;2023-07-22T03:03:02;14.27;80.69
40059;SHT31;25763;49.972;8.568;2023-07-22T03:05:28;14.28;80.50
40059;SHT31;25763;49.972;8.568;2023-07-22T03:07:53;14.24;80.43
40059;SHT31;25763;49.972;8.568;2023-07-22T03:10:19;14.24;80.44
40059;SHT31;25763;49.972;8.568;2023-07-22T03:12:44;14.23;80.29
40059;SHT31;25763;49.972;8.568;2023-07-22T03:15:09;14.24;80.26
40059;SHT31;25763;49.972;8.568;2023-07-22T03:17:35;14.21;80.08
40059;SHT31;25763;49.972;8.568;2023-07-22T03:20:01;14.21;79.84
40059;SHT31;25763;49.972;8.568;2023-07-22T03:22:30;14.06;79.32
40059;SHT31;25763;49.972;8.568;2023-07-22T03:24:56;13.88;79.33
40059;SHT31;25763;49.972;8.568;2023-07-22T03:27:21;13.55;80.25
40059;SHT31;25763;49.972;8.568;2023-07-22T03:29:46;13.39;81.25
40059;SHT31;25763;49.972;8.568;2023-07-22T03:32:12;13.41;81.29
40059;SHT31;25763;49.972;8.568;2023-07-22T03:34:37;13.33;81.22
40059;SHT31;25763;49.972;8.568;2023-07-22T03:37:02;13.32;81.14
40059;SHT31;25763;49.972;8.568;2023-07-22T03:39:28;13.20;81.38
40059;SHT31;25763;49.972;8.568;2023-07-22T03:41:53;13.04;81.75
40059;SHT31;25763;49.972;8.568;2023-07-22T03:44:18;12.95;81.99
40059;SHT31;25763;49.972;8.568;2023-07-22T03:46:43;13.05;81.84
40059;SHT31;25763;49.972;8.568;2023-07-22T03:49:09;13.14;81.84
40059;SHT31;25763;49.972;8.568;2023-07-22T03:51:34;13.08;81.76
40059;SHT31;25763;49.972;8.568;2023-07-22T03:54:00;12.91;82.48
40059;SHT31;25763;49.972;8.568;2023-07-22T03:56:25;12.75;82.91
40059;SHT31;25763;49.972;8.568;2023-07-22T03:58:51;12.67;84.05
40059;SHT31;25763;49.972;8.568;2023-07-22T04:01:16;12.80;83.86
40059;SHT31;25763;49.972;8.568;2023-07-22T04:03:41;12.85;83.52
40059;SHT31;25763;49.972;8.568;2023-07-22T04:06:07;12.78;83.12
40059;SHT31;25763;49.972;8.568;2023-07-22T04:08:32;12.56;82.91
40059;SHT31;25763;49.972;8.568;2023-07-22T04:10:57;12.42;82.85
40059;SHT31;25763;49.972;8.568;2023-07-22T04:13:23;12.20;83.32
40059;SHT31;25763;49.972;8.568;2023-07-22T04:15:49;12.17;83.97
40059;SHT31;25763;49.972;8.568;2023-07-22T04:18:18;12.11;84.31
40059;SHT31;25763;49.972;8.568;2023-07-22T04:20:44;12.30;84.22
40059;SHT31;25763;49.972;8.568;2023-07-22T04:23:09;12.45;84.09
40059;SHT31;25763;49.972;8.568;2023-07-22T04:25:41;12.65;83.65
40059;SHT31;25763;49.972;8.568;2023-07-22T04:28:07;12.77;83.30
40059;SHT31;25763;49.972;8.568;2023-07-22T04:30:33;12.84;83.15
40059;SHT31;25763;49.972;8.568;2023-07-22T04:32:58;12.88;82.87
40059;SHT31;25763;49.972;8.568;2023-07-22T04:35:24;12.88;82.71
40059;SHT31;25763;49.972;8.568;2023-07-22T04:37:49;13.01;82.40
40059;SHT31;25763;49.972;8.568;2023-07-22T04:40:14;13.06;82.34
40059;SHT31;25763;49.972;8.568;2023-07-22T04:42:42;13.08;82.23
40059;SHT31;25763;49.972;8.568;2023-07-22T04:45:07;13.06;82.51
40059;SHT31;25763;49.972;8.568;2023-07-22T04:47:34;13.22;82.32
40059;SHT31;25763;49.972;8.568;2023-07-22T04:50:00;13.44;82.04
40059;SHT31;25763;49.972;8.568;2023-07-22T04:52:25;13.58;81.73
40059;SHT31;25763;49.972;8.568;2023-07-22T04:54:50;13.78;81.44
40059;SHT31;25763;49.972;8.568;2023-07-22T04:57:16;13.88;81.06
40059;SHT31;25763;49.972;8.568;2023-07-22T04:59:42;14.02;81.04
40059;SHT31;25763;49.972;8.568;2023-07-22T05:02:07;14.16;80.78
40059;SHT31;25763;49.972;8.568;2023-07-22T05:04:33;14.05;80.72
40059;SHT31;25763;49.972;8.568;2023-07-22T05:06:58;14.03;81.05
40059;SHT31;25763;49.972;8.568;2023-07-22T05:09:23;14.00;81.16
40059;SHT31;25763;49.972;8.568;2023-07-22T05:11:49;14.06;81.22
40059;SHT31;25763;49.972;8.568;2023-07-22T05:14:14;14.02;81.48
40059;SHT31;25763;49.972;8.568;2023-07-22T05:16:40;13.99;81.70
40059;SHT31;25763;49.972;8.568;2023-07-22T05:19:05;14.10;81.39
40059;SHT31;25763;49.972;8.568;2023-07-22T05:21:33;14.17;81.43
40059;SHT31;25763;49.972;8.568;2023-07-22T05:23:58;14.18;81.39
40059;SHT31;25763;49.972;8.568;2023-07-22T05:26:23;14.26;81.32
40059;SHT31;25763;49.972;8.568;2023-07-22T05:28:49;14.35;81.41
40059;SHT31;25763;49.972;8.568;2023-07-22T05:31:14;14.45;81.28
40059;SHT31;25763;49.972;8.568;2023-07-22T05:33:40;14.61;81.03
40059;SHT31;25763;49.972;8.568;2023-07-22T05:36:06;14.80;80.74
40059;SHT31;25763;49.972;8.568;2023-07-22T05:38:31;15.03;80.46
40059;SHT31;25763;49.972;8.568;2023-07-22T05:40:56;15.11;80.07
40059;SHT31;25763;49.972;8.568;2023-07-22T05:43:22;15.41;79.75
40059;SHT31;25763;49.972;8.568;2023-07-22T05:45:47;15.63;79.54
40059;SHT31;25763;49.972;8.568;2023-07-22T05:48:12;15.81;79.03
40059;SHT31;25763;49.972;8.568;2023-07-22T05:50:37;16.03;78.65
40059;SHT31;25763;49.972;8.568;2023-07-22T05:53:03;16.21;78.31
40059;SHT31;25763;49.972;8.568;2023-07-22T05:55:28;16.42;78.69
40059;SHT31;25763;49.972;8.568;2023-07-22T05:57:53;16.59;77.83
40059;SHT31;25763;49.972;8.568;2023-07-22T06:00:19;16.74;77.29
40059;SHT31;25763;49.972;8.568;2023-07-22T06:02:44;16.81;76.63
40059;SHT31;25763;49.972;8.568;2023-07-22T06:05:09;16.92;76.68
40059;SHT31;25763;49.972;8.568;2023-07-22T06:07:35;17.02;76.11
40059;SHT31;25763;49.972;8.568;2023-07-22T06:10:01;17.15;76.33
40059;SHT31;25763;49.972;8.568;2023-07-22T06:12:28;17.53;76.60
40059;SHT31;25763;49.972;8.568;2023-07-22T06:14:53;17.64;75.40
40059;SHT31;25763;49.972;8.568;2023-07-22T06:17:19;17.75;73.89
40059;SHT31;25763;49.972;8.568;2023-07-22T06:19:45;18.03;74.97
40059;SHT31;25763;49.972;8.568;2023-07-22T06:22:10;18.21;75.14
40059;SHT31;25763;49.972;8.568;2023-07-22T06:24:36;18.27;74.06
40059;SHT31;25763;49.972;8.568;2023-07-22T06:27:01;18.13;73.03
40059;SHT31;25763;49.972;8.568;2023-07-22T06:29:26;18.16;73.15
40059;SHT31;25763;49.972;8.568;2023-07-22T06:31:52;18.34;73.25
40059;SHT31;25763;49.972;8.568;2023-07-22T06:34:25;18.31;71.45
40059;SHT31;25763;49.972;8.568;2023-07-22T06:36:50;18.40;72.24
40059;SHT31;25763;49.972;8.568;2023-07-22T06:39:16;18.33;71.90
40059;SHT31;25763;49.972;8.568;2023-07-22T06:41:41;18.34;72.30
40059;SHT31;25763;49.972;8.568;2023-07-22T06:44:06;18.30;72.05
40059;SHT31;25763;49.972;8.568;2023-07-22T06:46:31;18.26;71.67
40059;SHT31;25763;49.972;8.568;2023-07-22T06:48:57;18.37;72.19
40059;SHT31;25763;49.972;8.568;2023-07-22T06:51:22;18.58;72.01
40059;SHT31;25763;49.972;8.568;2023-07-22T06:53:47;18.71;71.22
40059;SHT31;25763;49.972;8.568;2023-07-22T06:56:13;18.83;71.49
40059;SHT31;25763;49.972;8.568;2023-07-22T06:58:38;18.90;70.05
40059;SHT31;25763;49.972;8.568;2023-07-22T07:01:03;19.15;70.80
40059;SHT31;25763;49.972;8.568;2023-07-22T07:03:28;19.34;70.52
40059;SHT31;25763;49.972;8.568;2023-07-22T07:05:54;19.55;70.01
40059;SHT31;25763;49.972;8.568;2023-07-22T07:08:20;19.69;69.94
40059;SHT31;25763;49.972;8.568;2023-07-22T07:10:45;19.73;68.08
40059;SHT31;25763;49.972;8.568;2023-07-22T07:13:11;19.87;68.40
40059;SHT31;25763;49.972;8.568;2023-07-22T07:15:36;19.96;67.05
40059;SHT31;25763;49.972;8.568;2023-07-22T07:18:02;20.00;67.22
40059;SHT31;25763;49.972;8.568;2023-07-22T07:20:27;20.22;67.48
40059;SHT31;25763;49.972;8.568;2023-07-22T07:22:52;20.57;67.39
40059;SHT31;25763;49.972;8.568;2023-07-22T07:25:17;20.31;66.41
40059;SHT31;25763;49.972;8.568;2023-07-22T07:27:43;20.81;66.15
40059;SHT31;25763;49.972;8.568;2023-07-22T07:30:08;20.81;64.02
40059;SHT31;25763;49.972;8.568;2023-07-22T07:32:35;21.19;64.60
40059;SHT31;25763;49.972;8.568;2023-07-22T07:35:00;21.67;64.25
40059;SHT31;25763;49.972;8.568;2023-07-22T07:37:25;21.60;61.73
40059;SHT31;25763;49.972;8.568;2023-07-22T07:39:51;21.57;62.44
40059;SHT31;25763;49.972;8.568;2023-07-22T07:42:16;21.36;62.62
40059;SHT31;25763;49.972;8.568;2023-07-22T07:44:42;21.81;63.40
40059;SHT31;25763;49.972;8.568;2023-07-22T07:47:07;21.97;63.11
40059;SHT31;25763;49.972;8.568;2023-07-22T07:49:33;21.82;59.86
40059;SHT31;25763;49.972;8.568;2023-07-22T07:51:58;21.40;59.21
40059;SHT31;25763;49.972;8.568;2023-07-22T07:54:23;21.47;60.45
40059;SHT31;25763;49.972;8.568;2023-07-22T07:56:48;21.73;60.27
40059;SHT31;25763;49.972;8.568;2023-07-22T07:59:14;22.08;61.30
40059;SHT31;25763;49.972;8.568;2023-07-22T08:01:39;22.41;59.46
40059;SHT31;25763;49.972;8.568;2023-07-22T08:04:07;22.61;58.70
40059;SHT31;25763;49.972;8.568;2023-07-22T08:06:32;22.51;57.85
40059;SHT31;25763;49.972;8.568;2023-07-22T08:08:58;22.69;59.77
40059;SHT31;25763;49.972;8.568;2023-07-22T08:11:24;22.85;58.34
40059;SHT31;25763;49.972;8.568;2023-07-22T08:13:49;22.57;57.91
40059;SHT31;25763;49.972;8.568;2023-07-22T08:16:16;22.34;58.24
40059;SHT31;25763;49.972;8.568;2023-07-22T08:18:41;22.88;59.84
40059;SHT31;25763;49.972;8.568;2023-07-22T08:21:07;22.54;57.21
40059;SHT31;25763;49.972;8.568;2023-07-22T08:23:33;22.37;57.64
40059;SHT31;25763;49.972;8.568;2023-07-22T08:25:58;22.22;57.69
40059;SHT31;25763;49.972;8.568;2023-07-22T08:28:23;21.94;58.10
40059;SHT31;25763;49.972;8.568;2023-07-22T08:30:49;22.04;58.36
40059;SHT31;25763;49.972;8.568;2023-07-22T08:33:14;22.04;57.51
40059;SHT31;25763;49.972;8.568;2023-07-22T08:35:39;22.34;59.13
40059;SHT31;25763;49.972;8.568;2023-07-22T08:38:05;22.22;57.80
40059;SHT31;25763;49.972;8.568;2023-07-22T08:40:34;22.72;57.45
40059;SHT31;25763;49.972;8.568;2023-07-22T08:42:59;22.64;56.52
40059;SHT31;25763;49.972;8.568;2023-07-22T08:45:25;22.47;56.88
40059;SHT31;25763;49.972;8.568;2023-07-22T08:47:53;22.54;57.15
40059;SHT31;25763;49.972;8.568;2023-07-22T08:50:20;22.65;58.23
40059;SHT31;25763;49.972;8.568;2023-07-22T08:52:46;22.51;57.75
40059;SHT31;25763;49.972;8.568;2023-07-22T08:55:12;22.60;58.22
40059;SHT31;25763;49.972;8.568;2023-07-22T08:57:37;22.67;56.52
40059;SHT31;25763;49.972;8.568;2023-07-22T09:00:03;23.33;56.03
40059;SHT31;25763;49.972;8.568;2023-07-22T09:02:31;23.31;55.13
40059;SHT31;25763;49.972;8.568;2023-07-22T09:04:57;23.34;55.72
40059;SHT31;25763;49.972;8.568;2023-07-22T09:07:23;22.64;55.75
40059;SHT31;25763;49.972;8.568;2023-07-22T09:09:49;22.68;56.41
40059;SHT31;25763;49.972;8.568;2023-07-22T09:12:14;22.39;56.94
40059;SHT31;25763;49.972;8.568;2023-07-22T09:14:40;22.32;56.44
40059;SHT31;25763;49.972;8.568;2023-07-22T09:17:05;22.83;56.75
40059;SHT31;25763;49.972;8.568;2023-07-22T09:19:31;22.93;55.09
40059;SHT31;25763;49.972;8.568;2023-07-22T09:21:56;22.95;55.31
40059;SHT31;25763;49.972;8.568;2023-07-22T09:24:24;23.02;55.15
40059;SHT31;25763;49.972;8.568;2023-07-22T09:26:50;23.44;55.84
40059;SHT31;25763;49.972;8.568;2023-07-22T09:29:15;23.82;54.71
40059;SHT31;25763;49.972;8.568;2023-07-22T09:31:50;24.20;53.69
40059;SHT31;25763;49.972;8.568;2023-07-22T09:34:16;24.34;52.59
40059;SHT31;25763;49.972;8.568;2023-07-22T09:36:49;24.09;52.50
40059;SHT31;25763;49.972;8.568;2023-07-22T09:39:14;23.66;52.98
40059;SHT31;25763;49.972;8.568;2023-07-22T09:41:41;23.43;53.72
40059;SHT31;25763;49.972;8.568;2023-07-22T09:44:08;23.13;54.10
40059;SHT31;25763;49.972;8.568;2023-07-22T09:46:34;23.12;54.55
40059;SHT31;25763;49.972;8.568;2023-07-22T09:49:02;22.95;55.24
40059;SHT31;25763;49.972;8.568;2023-07-22T09:51:32;23.37;55.39
40059;SHT31;25763;49.972;8.568;2023-07-22T09:54:01;23.58;53.67
40059;SHT31;25763;49.972;8.568;2023-07-22T09:56:26;23.33;51.16
40059;SHT31;25763;49.972;8.568;2023-07-22T09:58:52;23.26;52.31
40059;SHT31;25763;49.972;8.568;2023-07-22T10:01:22;23.20;52.62
40059;SHT31;25763;49.972;8.568;2023-07-22T10:03:49;23.04;52.95
40059;SHT31;25763;49.972;8.568;2023-07-22T10:06:16;22.92;52.02
40059;SHT31;25763;49.972;8.568;2023-07-22T10:08:41;22.82;50.27
40059;SHT31;25763;49.972;8.568;2023-07-22T10:11:08;23.03;51.21
40059;SHT31;25763;49.972;8.568;2023-07-22T10:13:35;23.09;51.20
40059;SHT31;25763;49.972;8.568;2023-07-22T10:16:00;23.51;52.26
40059;SHT31;25763;49.972;8.568;2023-07-22T10:18:27;24.16;50.41
40059;SHT31;25763;49.972;8.568;2023-07-22T10:20:52;24.31;50.38
40059;SHT31;25763;49.972;8.568;2023-07-22T10:23:18;23.96;48.40
40059;SHT31;25763;49.972;8.568;2023-07-22T10:25:44;23.65;48.42
40059;SHT31;25763;49.972;8.568;2023-07-22T10:28:09;23.99;51.16
40059;SHT31;25763;49.972;8.568;2023-07-22T10:30:36;23.99;48.43
40059;SHT31;25763;49.972;8.568;2023-07-22T10:33:01;23.96;49.64
40059;SHT31;25763;49.972;8.568;2023-07-22T10:37:54;24.53;51.31
40059;SHT31;25763;49.972;8.568;2023-07-22T10:40:29;24.56;48.56
40059;SHT31;25763;49.972;8.568;2023-07-22T10:45:24;23.92;47.81
40059;SHT31;25763;49.972;8.568;2023-07-22T10:47:59;23.86;49.07
40059;SHT31;25763;49.972;8.568;2023-07-22T10:50:26;24.24;48.50
40059;SHT31;25763;49.972;8.568;2023-07-22T10:53:02;24.45;48.43
40059;SHT31;25763;49.972;8.568;2023-07-22T10:55:27;24.61;47.93
40059;SHT31;25763;49.972;8.568;2023-07-22T10:57:53;24.79;48.76
40059;SHT31;25763;49.972;8.568;2023-07-22T11:00:21;24.58;47.22
40059;SHT31;25763;49.972;8.568;2023-07-22T11:02:47;24.51;49.19
40059;SHT31;25763;49.972;8.568;2023-07-22T11:05:13;24.73;49.13
40059;SHT31;25763;49.972;8.568;2023-07-22T11:07:44;24.33;47.27
40059;SHT31;25763;49.972;8.568;2023-07-22T11:10:10;24.13;48.86
40059;SHT31;25763;49.972;8.568;2023-07-22T11:12:36;23.94;49.52
40059;SHT31;25763;49.972;8.568;2023-07-22T11:15:03;24.09;50.96
40059;SHT31;25763;49.972;8.568;2023-07-22T11:17:31;24.31;50.83
40059;SHT31;25763;49.972;8.568;2023-07-22T11:19:57;24.66;50.12
40059;SHT31;25763;49.972;8.568;2023-07-22T11:22:22;24.75;48.86
40059;SHT31;25763;49.972;8.568;2023-07-22T11:24:47;24.79;49.72
40059;SHT31;25763;49.972;8.568;2023-07-22T11:27:13;24.66;50.09
40059;SHT31;25763;49.972;8.568;2023-07-22T11:29:38;24.70;49.60
40059;SHT31;25763;49.972;8.568;2023-07-22T11:32:05;24.63;50.26
40059;SHT31;25763;49.972;8.568;2023-07-22T11:34:31;24.91;50.84
40059;SHT31;25763;49.972;8.568;2023-07-22T11:36:56;24.82;48.42
40059;SHT31;25763;49.972;8.568;2023-07-22T11:39:26;25.06;50.05
40059;SHT31;25763;49.972;8.568;2023-07-22T11:41:52;25.24;48.96
40059;SHT31;25763;49.972;8.568;2023-07-22T11:44:18;25.28;49.21
40059;SHT31;25763;49.972;8.568;2023-07-22T11:47:03;25.58;47.44
40059;SHT31;25763;49.972;8.568;2023-07-22T11:49:30;25.81;47.72
40059;SHT31;25763;49.972;8.568;2023-07-22T11:52:08;25.67;47.01
40059;SHT31;25763;49.972;8.568;2023-07-22T11:54:40;25.50;47.38
40059;SHT31;25763;49.972;8.568;2023-07-22T11:57:18;25.73;47.03
40059;SHT31;25763;49.972;8.568;2023-07-22T11:59:44;25.81;45.19
40059;SHT31;25763;49.972;8.568;2023-07-22T12:02:17;25.76;44.72
40059;SHT31;25763;49.972;8.568;2023-07-22T12:04:43;26.12;46.05
40059;SHT31;25763;49.972;8.568;2023-07-22T12:07:25;26.57;45.68
40059;SHT31;25763;49.972;8.568;2023-07-22T12:09:51;26.40;43.16
40059;SHT31;25763;49.972;8.568;2023-07-22T12:12:16;26.68;46.01
40059;SHT31;25763;49.972;8.568;2023-07-22T12:14:42;26.09;45.36
40059;SHT31;25763;49.972;8.568;2023-07-22T12:17:10;25.69;44.40
40059;SHT31;25763;49.972;8.568;2023-07-22T12:19:35;25.27;46.74
40059;SHT31;25763;49.972;8.568;2023-07-22T12:22:01;25.06;46.33
40059;SHT31;25763;49.972;8.568;2023-07-22T12:24:27;25.02;46.51
40059;SHT31;25763;49.972;8.568;2023-07-22T12:26:52;25.03;46.11
40059;SHT31;25763;49.972;8.568;2023-07-22T12:29:18;25.21;47.56
40059;SHT31;25763;49.972;8.568;2023-07-22T12:31:43;25.36;44.60
40059;SHT31;25763;49.972;8.568;2023-07-22T12:34:09;25.36;45.55
40059;SHT31;25763;49.972;8.568;2023-07-22T12:36:34;25.28;44.36
40059;SHT31;25763;49.972;8.568;2023-07-22T12:38:59;25.32;44.71
40059;SHT31;25763;49.972;8.568;2023-07-22T12:41:24;25.79;47.01
40059;SHT31;25763;49.972;8.568;2023-07-22T12:43:50;25.97;45.54
40059;SHT31;25763;49.972;8.568;2023-07-22T12:46:15;26.05;44.96
40059;SHT31;25763;49.972;8.568;2023-07-22T12:48:41;26.40;45.54
40059;SHT31;25763;49.972;8.568;2023-07-22T12:51:06;26.65;44.61
40059;SHT31;25763;49.972;8.568;2023-07-22T12:53:31;27.09;41.71
40059;SHT31;25763;49.972;8.568;2023-07-22T12:55:57;27.24;43.74
40059;SHT31;25763;49.972;8.568;2023-07-22T12:58:22;26.88;42.63
40059;SHT31;25763;49.972;8.568;2023-07-22T13:00:47;26.63;43.97
40059;SHT31;25763;49.972;8.568;2023-07-22T13:03:13;26.73;44.47
40059;SHT31;25763;49.972;8.568;2023-07-22T13:05:38;26.11;43.56
40059;SHT31;25763;49.972;8.568;2023-07-22T13:08:03;25.84;43.87
40059;SHT31;25763;49.972;8.568;2023-07-22T13:10:29;26.31;44.61
40059;SHT31;25763;49.972;8.568;2023-07-22T13:12:54;26.77;42.71
40059;SHT31;25763;49.972;8.568;2023-07-22T13:15:20;26.70;43.48
40059;SHT31;25763;49.972;8.568;2023-07-22T13:17:45;26.73;42.38
40059;SHT31;25763;49.972;8.568;2023-07-22T13:20:10;26.88;44.42
40059;SHT31;25763;49.972;8.568;2023-07-22T13:22:37;26.43;41.68
40059;SHT31;25763;49.972;8.568;2023-07-22T13:25:02;25.98;41.78
40059;SHT31;25763;49.972;8.568;2023-07-22T13:27:28;25.61;40.64
40059;SHT31;25763;49.972;8.568;2023-07-22T13:29:53;25.90;39.92
40059;SHT31;25763;49.972;8.568;2023-07-22T13:32:19;26.25;40.49
40059;SHT31;25763;49.972;8.568;2023-07-22T13:34:44;26.46;39.31
40059;SHT31;25763;49.972;8.568;2023-07-22T13:37:09;26.29;38.22
40059;SHT31;25763;49.972;8.568;2023-07-22T13:39:34;26.18;38.20
40059;SHT31;25763;49.972;8.568;2023-07-22T13:42:00;26.36;38.01
40059;SHT31;25763;49.972;8.568;2023-07-22T13:44:25;26.49;37.49
40059;SHT31;25763;49.972;8.568;2023-07-22T13:46:50;26.40;39.92
40059;SHT31;25763;49.972;8.568;2023-07-22T13:49:15;26.39;38.28
40059;SHT31;25763;49.972;8.568;2023-07-22T13:51:41;26.36;39.18
40059;SHT31;25763;49.972;8.568;2023-07-22T13:54:06;26.06;38.40
40059;SHT31;25763;49.972;8.568;2023-07-22T13:56:31;26.26;38.43
40059;SHT31;25763;49.972;8.568;2023-07-22T13:58:57;26.17;38.06
40059;SHT31;25763;49.972;8.568;2023-07-22T14:01:23;26.56;38.44
40059;SHT31;25763;49.972;8.568;2023-07-22T14:03:48;26.83;37.17
40059;SHT31;25763;49.972;8.568;2023-07-22T14:06:14;27.12;36.68
40059;SHT31;25763;49.972;8.568;2023-07-22T14:08:39;26.73;37.38
40059;SHT31;25763;49.972;8.568;2023-07-22T14:11:04;26.28;37.40
40059;SHT31;25763;49.972;8.568;2023-07-22T14:13:30;26.32;38.02
40059;SHT31;25763;49.972;8.568;2023-07-22T14:15:55;26.18;38.68
40059;SHT31;25763;49.972;8.568;2023-07-22T14:18:20;26.14;38.80
40059;SHT31;25763;49.972;8.568;2023-07-22T14:20:45;25.91;38.34
40059;SHT31;25763;49.972;8.568;2023-07-22T14:23:11;26.22;39.02
40059;SHT31;25763;49.972;8.568;2023-07-22T14:25:36;26.81;38.40
40059;SHT31;25763;49.972;8.568;2023-07-22T14:28:02;26.52;37.71
40059;SHT31;25763;49.972;8.568;2023-07-22T14:30:27;26.39;37.68
40059;SHT31;25763;49.972;8.568;2023-07-22T14:32:52;26.21;37.19
40059;SHT31;25763;49.972;8.568;2023-07-22T14:35:18;25.87;38.48
40059;SHT31;25763;49.972;8.568;2023-07-22T14:37:43;26.18;39.57
40059;SHT31;25763;49.972;8.568;2023-07-22T14:40:10;26.63;38.36
40059;SHT31;25763;49.972;8.568;2023-07-22T14:42:35;26.76;37.41
40059;SHT31;25763;49.972;8.568;2023-07-22T14:45:00;26.70;38.00
40059;SHT31;25763;49.972;8.568;2023-07-22T14:47:26;26.97;38.03
40059;SHT31;25763;49.972;8.568;2023-07-22T14:49:51;26.98;38.55
40059;SHT31;25763;49.972;8.568;2023-07-22T14:52:16;26.84;38.58
40059;SHT31;25763;49.972;8.568;2023-07-22T14:54:43;26.70;37.49
40059;SHT31;25763;49.972;8.568;2023-07-22T14:57:08;26.88;37.35
40059;SHT31;25763;49.972;8.568;2023-07-22T14:59:34;26.84;36.57
40059;SHT31;25763;49.972;8.568;2023-07-22T15:01:59;26.81;36.36
40059;SHT31;25763;49.972;8.568;2023-07-22T15:04:24;26.91;37.24
40059;SHT31;25763;49.972;8.568;2023-07-22T15:06:49;27.11;36.86
40059;SHT31;25763;49.972;8.568;2023-07-22T15:09:15;26.59;37.31
40059;SHT31;25763;49.972;8.568;2023-07-22T15:11:40;26.15;37.88
40059;SHT31;25763;49.972;8.568;2023-07-22T15:14:05;25.91;37.93
40059;SHT31;25763;49.972;8.568;2023-07-22T15:16:31;25.95;37.64
40059;SHT31;25763;49.972;8.568;2023-07-22T15:18:56;26.47;37.65
40059;SHT31;25763;49.972;8.568;2023-07-22T15:21:22;26.60;35.84
40059;SHT31;25763;49.972;8.568;2023-07-22T15:23:47;26.53;36.08
40059;SHT31;25763;49.972;8.568;2023-07-22T15:26:13;26.97;38.00